Time;durP1;ratioP1;P1;durP2;ratioP2;P2;SDS_P1;SDS_P2;PMS_P1;PMS_P2;Temp;Humidity;BMP_temperature;BMP_pressure;BME280_temperature;BME280_humidity;BME280_pressure;Samples;Min_cycle;Max_cycle;Signal;HPM_P1;HPM_P2
2023/01/18 00:01:08;;;;;;;43.57;21.50;;;;;;;4.44;58.24;97711.41;5034993;27;97166;-80
2023/01/18 00:03:34;;;;;;;37.97;19.57;;;;;;;4.37;58.13;97684.06;5049383;27;97242;-80
2023/01/18 00:06:02;;;;;;;46.23;22.70;;;;;;;4.48;58.12;97703.41;5048605;27;101765;-81
2023/01/18 00:08:28;;;;;;;38.97;20.43;;;;;;;4.43;58.17;97696.75;5036859;27;101646;-80
2023/01/18 00:11:00;;;;;;;46.93;22.47;;;;;;;4.39;58.17;97690.00;5052288;27;97556;-80
2023/01/18 00:13:26;;;;;;;;;;;;;;;4.49;58.32;97704.22;5060864;27;97443;-80
2023/01/18 00:15:52;;;;;;;42.07;22.07;;;;;;;4.35;58.60;97676.34;5065413;27;98304;-80
2023/01/18 00:18:17;;;;;;;44.63;23.00;;;;;;;4.42;58.70;97690.72;5081726;27;98650;-80
2023/01/18 00:20:43;;;;;;;45.00;23.53;;;;;;;4.27;58.53;97668.09;5056392;27;97277;-80
2023/01/18 00:23:08;;;;;;;44.93;22.70;;;;;;;4.42;58.68;97684.66;5073509;27;97560;-81
2023/01/18 00:25:34;;;;;;;42.27;21.73;;;;;;;4.34;58.91;97687.66;5050039;27;101364;-80
2023/01/18 00:27:59;;;;;;;44.27;22.23;;;;;;;4.34;58.97;97692.03;5064820;27;97950;-80
2023/01/18 00:30:27;;;;;;;41.93;21.33;;;;;;;4.27;59.30;97691.47;5059149;27;97132;-80
2023/01/18 00:32:56;;;;;;;36.27;20.73;;;;;;;4.34;59.35;97698.06;5068744;27;97862;-80
2023/01/18 00:35:22;;;;;;;39.83;19.93;;;;;;;4.19;59.49;97672.84;5039082;27;101789;-80
2023/01/18 00:37:50;;;;;;;41.83;20.40;;;;;;;4.32;59.98;97695.53;5045623;27;101425;-80
2023/01/18 00:40:16;;;;;;;35.83;19.47;;;;;;;4.26;59.32;97680.25;5058740;27;96832;-81
2023/01/18 00:45:26;;;;;;;34.10;19.57;;;;;;;4.30;59.26;97692.19;5075520;27;97824;-81
2023/01/18 00:47:52;;;;;;;37.67;19.80;;;;;;;4.34;59.64;97690.25;5073811;27;98276;-81
2023/01/18 00:50:21;;;;;;;38.87;19.43;;;;;;;4.32;59.59;97692.09;5055858;27;96861;-81
2023/01/18 00:52:48;;;;;;;39.57;20.27;;;;;;;4.32;59.46;97689.50;5061552;27;96993;-80
2023/01/18 00:55:14;;;;;;;42.17;20.90;;;;;;;4.30;59.73;97692.19;5041912;27;101078;-81
2023/01/18 00:57:40;;;;;;;39.93;21.30;;;;;;;4.38;59.89;97699.56;5069808;27;101525;-80
2023/01/18 01:00:10;;;;;;;39.17;20.63;;;;;;;4.31;59.63;97693.00;5061193;27;97188;-81
2023/01/18 01:02:40;;;;;;;40.60;20.67;;;;;;;4.23;59.92;97685.59;5061761;27;97399;-79
2023/01/18 01:08:00;;;;;;;38.93;19.87;;;;;;;4.31;59.56;97680.88;5093746;27;101223;-80
2023/01/18 01:10:25;;;;;;;39.80;20.40;;;;;;;4.27;59.79;97675.88;5057319;27;96920;-80
2023/01/18 01:26:33;;;;;;;39.97;20.30;;;;;;;4.15;60.11;97643.59;5073720;27;99513;-80
2023/01/18 01:28:58;;;;;;;37.80;20.33;;;;;;;4.23;60.18;97653.59;5055899;27;101057;-80
2023/01/18 01:31:24;;;;;;;42.37;19.50;;;;;;;4.30;59.90;97662.75;5075675;27;97248;-80
2023/01/18 01:33:50;;;;;;;41.47;20.57;;;;;;;4.27;59.90;97650.75;5073751;27;97294;-83
2023/01/18 01:36:19;;;;;;;45.50;20.33;;;;;;;4.33;59.99;97660.00;5056771;27;101840;-82
2023/01/18 01:38:44;;;;;;;36.13;20.07;;;;;;;4.26;60.26;97646.50;5075843;27;98086;-80
2023/01/18 01:41:14;;;;;;;37.33;19.23;;;;;;;4.16;60.36;97629.72;5036464;27;97337;-81
2023/01/18 01:43:44;;;;;;;33.83;19.17;;;;;;;4.30;59.88;97658.41;5062835;27;97523;-82
2023/01/18 01:46:26;;;;;;;38.17;20.43;;;;;;;4.23;60.14;97644.06;5076901;27;97898;-81
2023/01/18 01:49:17;;;;;;;34.55;18.15;;;;;;;4.27;60.46;97657.72;5071027;27;101457;-81
2023/01/18 01:51:50;;;;;;;37.63;19.90;;;;;;;4.18;60.20;97643.44;5060456;27;97295;-80
2023/01/18 01:54:21;;;;;;;38.47;18.70;;;;;;;4.32;60.17;97671.31;5060344;27;97172;-81
2023/01/18 01:56:47;;;;;;;40.70;20.23;;;;;;;4.26;60.47;97656.88;5058887;27;101750;-80
2023/01/18 01:59:14;;;;;;;36.30;19.53;;;;;;;4.22;60.37;97652.75;5071921;27;98176;-80
2023/01/18 02:01:42;;;;;;;40.57;19.63;;;;;;;4.20;60.24;97649.41;5066880;27;96897;-80
2023/01/18 02:04:08;;;;;;;34.27;18.70;;;;;;;4.29;60.20;97653.28;5082032;27;96792;-80
2023/01/18 02:06:36;;;;;;;36.30;19.27;;;;;;;4.17;60.46;97633.97;5064079;27;100938;-80
2023/01/18 02:09:07;;;;;;;38.40;20.70;;;;;;;4.27;60.66;97650.75;5057713;27;101588;-80
2023/01/18 02:11:33;;;;;;;41.20;20.13;;;;;;;4.20;60.45;97641.63;5056844;27;97228;-80
2023/01/18 02:14:06;;;;;;;38.90;20.30;;;;;;;4.29;60.52;97661.91;5078216;27;97835;-81
2023/01/18 02:16:50;;;;;;;36.43;19.13;;;;;;;4.30;60.59;97655.81;5066133;27;101429;-82
2023/01/18 02:19:30;;;;;;;36.80;20.20;;;;;;;4.27;60.56;97652.50;5080727;27;99466;-82
2023/01/18 02:22:27;;;;;;;36.47;18.77;;;;;;;4.19;60.37;97637.34;5081397;27;97747;-82
2023/01/18 02:25:06;;;;;;;36.53;19.73;;;;;;;4.22;60.56;97649.34;5063576;27;97672;-82
2023/01/18 02:27:42;;;;;;;39.80;19.87;;;;;;;4.23;61.00;97651.00;5082074;27;101410;-82
2023/01/18 02:30:26;;;;;;;41.73;22.63;;;;;;;4.25;60.67;97646.59;5066029;27;101588;-82
2023/01/18 02:33:08;;;;;;;42.10;20.70;;;;;;;4.24;60.71;97653.50;5072194;27;97867;-82
2023/01/18 02:35:36;;;;;;;44.93;21.37;;;;;;;4.26;60.91;97656.03;5056119;27;97375;-82
2023/01/18 02:38:08;;;;;;;44.57;23.50;;;;;;;4.20;60.84;97654.59;5078185;27;101273;-82
2023/01/18 02:40:53;;;;;;;40.97;23.10;;;;;;;4.14;60.96;97651.47;5037181;27;100906;-83
2023/01/18 02:48:49;;;;;;;39.10;20.13;;;;;;;4.09;61.11;97643.91;5056990;27;101458;-82
2023/01/18 02:51:15;;;;;;;38.00;21.60;;;;;;;4.13;61.19;97650.63;5048911;27;101402;-82
2023/01/18 02:53:43;;;;;;;38.47;21.07;;;;;;;4.11;61.43;97655.06;5054726;27;97299;-82
2023/01/18 02:56:18;;;;;;;39.43;21.63;;;;;;;4.20;61.17;97666.75;5043681;27;97117;-82
2023/01/18 02:59:01;;;;;;;39.50;21.03;;;;;;;4.06;61.47;97652.69;5060522;27;98757;-83
2023/01/18 03:01:32;;;;;;;;;;;;;;;4.21;61.27;97668.41;5067547;27;101980;-82
2023/01/18 03:04:03;;;;;;;36.70;20.42;;;;;;;4.04;61.59;97643.28;5065091;27;96956;-82
2023/01/18 03:06:28;;;;;;;37.83;20.97;;;;;;;4.20;61.34;97669.34;5052624;27;100281;-82
2023/01/18 03:08:55;;;;;;;41.53;21.43;;;;;;;4.23;61.26;97664.00;5057431;27;100990;-82
2023/01/18 03:11:45;;;;;;;40.00;20.13;;;;;;;4.24;61.31;97668.25;5072605;27;97849;-82
2023/01/18 03:14:36;;;;;;;41.73;20.80;;;;;;;4.24;61.79;97668.25;5098233;27;97100;-82
2023/01/18 03:17:10;;;;;;;40.73;22.50;;;;;;;4.25;61.57;97673.38;5071250;27;97032;-82
2023/01/18 03:25:26;;;;;;;39.03;21.23;;;;;;;4.07;61.74;97643.13;5071130;27;96712;-82
2023/01/18 03:36:11;;;;;;;43.23;21.90;;;;;;;4.28;61.74;97682.78;5080174;27;96756;-82
2023/01/18 03:38:38;;;;;;;44.80;21.70;;;;;;;4.22;61.62;97659.72;5054587;27;97198;-82
2023/01/18 03:41:05;;;;;;;41.63;22.33;;;;;;;4.08;61.59;97626.66;5057209;27;99641;-82
2023/01/18 03:43:36;;;;;;;38.10;22.03;;;;;;;4.24;61.49;97669.09;5058495;27;99889;-82
2023/01/18 03:46:03;;;;;;;45.67;24.07;;;;;;;3.95;61.70;97626.41;5055617;27;98359;-82
2023/01/18 03:48:30;;;;;;;44.47;23.60;;;;;;;4.20;61.86;97664.97;5075914;27;97391;-82
2023/01/18 03:51:08;;;;;;;46.43;23.60;;;;;;;4.26;62.22;97669.03;5053752;27;101041;-82
2023/01/18 03:53:41;;;;;;;49.87;24.97;;;;;;;4.15;62.13;97646.19;5070610;27;98141;-82
2023/01/18 03:56:19;;;;;;;41.20;23.67;;;;;;;4.29;62.36;97661.91;5048129;27;97331;-82
2023/01/18 03:58:47;;;;;;;45.83;23.60;;;;;;;4.22;62.40;97649.34;5064779;27;97196;-82
2023/01/18 04:01:13;;;;;;;44.77;23.77;;;;;;;4.27;62.56;97648.16;5058918;27;101558;-82
2023/01/18 04:03:38;;;;;;;42.03;23.00;;;;;;;4.27;63.01;97647.31;5054647;27;98172;-82
2023/01/18 04:06:06;;;;;;;43.13;23.17;;;;;;;4.26;63.08;97643.06;5041643;27;98191;-81
2023/01/18 04:08:32;;;;;;;40.37;23.20;;;;;;;4.31;63.20;97649.69;5047262;27;97401;-82
2023/01/18 04:10:57;;;;;;;47.30;25.87;;;;;;;4.20;63.46;97631.22;5067290;27;100695;-82
2023/01/18 04:13:23;;;;;;;46.40;24.10;;;;;;;4.19;63.66;97621.75;5041588;27;101343;-82
2023/01/18 04:15:48;;;;;;;40.17;23.73;;;;;;;3.98;64.15;97591.69;5054616;27;97498;-82
2023/01/18 04:18:14;;;;;;;43.33;23.93;;;;;;;4.07;64.80;97610.25;5064678;27;96950;-82
2023/01/18 04:20:40;;;;;;;47.03;24.13;;;;;;;4.05;64.83;97614.66;5064431;27;98291;-82
2023/01/18 04:23:05;;;;;;;47.47;24.43;;;;;;;4.07;64.91;97623.22;5028055;27;101569;-82
2023/01/18 04:25:31;;;;;;;42.87;24.03;;;;;;;3.82;65.23;97576.06;5078257;27;97874;-82
2023/01/18 04:27:56;;;;;;;49.70;23.03;;;;;;;3.95;65.42;97594.44;5057784;27;97113;-82
2023/01/18 04:30:22;;;;;;;38.67;23.80;;;;;;;4.10;65.52;97624.81;5074585;27;97393;-82
2023/01/18 04:32:48;;;;;;;38.57;22.20;;;;;;;4.03;65.34;97605.28;5059592;27;101301;-82
2023/01/18 04:35:13;;;;;;;38.17;22.37;;;;;;;4.22;65.27;97644.16;5047126;27;97363;-82
2023/01/18 04:37:39;;;;;;;40.70;23.33;;;;;;;4.22;65.40;97652.75;5043143;27;98017;-82
2023/01/18 04:40:05;;;;;;;41.20;22.27;;;;;;;4.17;65.40;97654.75;5057738;27;101440;-83
2023/01/18 04:42:31;;;;;;;40.60;22.40;;;;;;;4.12;65.27;97654.13;5079880;27;97796;-82
2023/01/18 04:44:58;;;;;;;41.10;22.67;;;;;;;4.27;65.40;97668.09;5069631;27;97189;-82
2023/01/18 04:47:24;;;;;;;37.83;21.67;;;;;;;4.19;65.55;97637.34;5060570;27;97635;-82
2023/01/18 04:49:50;;;;;;;42.53;23.40;;;;;;;4.32;65.81;97661.75;5071109;27;97591;-82
2023/01/18 04:52:15;;;;;;;40.67;20.97;;;;;;;4.32;65.78;97650.53;5065517;27;101548;-82
2023/01/18 04:54:42;;;;;;;37.50;21.60;;;;;;;4.29;65.40;97648.09;5062068;27;97023;-82
2023/01/18 04:57:07;;;;;;;38.33;21.97;;;;;;;4.26;65.38;97637.88;5075022;27;97286;-82
2023/01/18 04:59:33;;;;;;;42.23;22.70;;;;;;;4.35;65.74;97659.94;5082016;27;97636;-82
2023/01/18 05:01:58;;;;;;;40.70;22.40;;;;;;;4.37;65.57;97655.50;5046406;27;101843;-82
2023/01/18 05:04:24;;;;;;;40.50;22.87;;;;;;;4.34;65.80;97658.25;5071288;27;97913;-81
2023/01/18 05:06:50;;;;;;;43.83;23.03;;;;;;;4.31;65.70;97675.66;5042843;27;97304;-82
2023/01/18 05:09:15;;;;;;;38.17;21.93;;;;;;;4.34;66.09;97687.66;5047112;27;101176;-82
2023/01/18 05:11:41;;;;;;;45.07;23.53;;;;;;;4.38;66.07;97696.13;5062637;27;97475;-83
2023/01/18 05:14:07;;;;;;;39.73;21.50;;;;;;;4.37;66.22;97691.88;5076757;27;97303;-82
2023/01/18 05:16:33;;;;;;;42.93;24.07;;;;;;;4.29;66.16;97669.69;5065085;27;96906;-82
2023/01/18 05:18:59;;;;;;;44.00;22.30;;;;;;;4.37;66.07;97681.47;5058373;27;100552;-82
2023/01/18 05:21:24;;;;;;;37.53;22.13;;;;;;;4.41;66.50;97680.38;5059834;27;101743;-82
2023/01/18 05:23:50;;;;;;;42.13;22.93;;;;;;;4.37;66.40;97671.94;5038916;27;98414;-82
2023/01/18 05:26:18;;;;;;;36.83;21.57;;;;;;;4.33;66.43;97657.41;5051768;27;97850;-82
2023/01/18 05:28:44;;;;;;;46.53;23.27;;;;;;;4.32;66.38;97656.56;5047411;27;99977;-83
2023/01/18 05:31:10;;;;;;;39.47;21.77;;;;;;;4.25;66.41;97631.84;5035623;27;101405;-83
2023/01/18 05:33:36;;;;;;;44.33;24.27;;;;;;;4.34;66.35;97642.69;5078077;27;96720;-83
2023/01/18 05:36:01;;;;;;;41.13;23.40;;;;;;;4.37;66.49;97645.94;5055770;27;97346;-83
2023/01/18 05:38:27;;;;;;;39.00;22.30;;;;;;;4.38;66.62;97647.63;5039770;27;101232;-82
2023/01/18 05:40:53;;;;;;;39.50;22.00;;;;;;;4.30;66.81;97622.06;5059761;27;101964;-82
2023/01/18 05:43:24;;;;;;;41.80;24.20;;;;;;;4.41;66.93;97633.63;5057979;27;97362;-82
2023/01/18 05:45:50;;;;;;;42.73;22.40;;;;;;;4.32;66.83;97619.38;5073415;27;97250;-83
2023/01/18 05:48:15;;;;;;;40.77;21.63;;;;;;;4.32;66.77;97617.59;5055929;27;101427;-82
2023/01/18 05:50:43;;;;;;;37.40;22.77;;;;;;;4.37;66.67;97626.94;5050525;27;99460;-83
2023/01/18 05:53:13;;;;;;;41.13;23.77;;;;;;;4.39;66.64;97631.09;5061798;27;97463;-83
2023/01/18 05:55:39;;;;;;;43.73;23.80;;;;;;;4.41;66.86;97641.44;5053623;27;97161;-83
2023/01/18 05:58:05;;;;;;;39.13;21.00;;;;;;;4.39;67.21;97643.25;5066449;27;101331;-82
2023/01/18 06:00:30;;;;;;;38.53;21.93;;;;;;;4.32;67.19;97634.94;5058308;27;97335;-81
2023/01/18 06:02:56;;;;;;;37.03;20.83;;;;;;;4.40;67.45;97657.94;5045283;27;97291;-81
2023/01/18 06:05:23;;;;;;;38.00;21.77;;;;;;;4.23;67.52;97631.06;5071928;27;96804;-81
2023/01/18 06:07:48;;;;;;;39.10;21.27;;;;;;;4.34;67.37;97653.06;5065680;27;101995;-81
2023/01/18 06:10:14;;;;;;;36.50;21.43;;;;;;;4.29;67.37;97648.09;5081275;27;101193;-81
2023/01/18 06:12:41;;;;;;;41.43;22.00;;;;;;;4.26;67.72;97640.47;5057709;27;97212;-82
2023/01/18 06:15:09;;;;;;;36.83;20.20;;;;;;;4.09;67.92;97626.56;5054194;27;97511;-80
2023/01/18 06:17:35;;;;;;;39.70;21.13;;;;;;;4.24;67.71;97644.88;5054588;27;101719;-81
2023/01/18 06:20:02;;;;;;;38.93;21.43;;;;;;;4.27;68.15;97655.94;5078735;27;97644;-88
2023/01/18 06:22:27;;;;;;;36.37;20.00;;;;;;;4.30;68.21;97662.75;5040771;27;97083;-80
2023/01/18 06:24:53;;;;;;;35.10;19.40;;;;;;;4.32;67.86;97664.34;5079845;27;96998;-80
2023/01/18 06:27:18;;;;;;;36.50;20.00;;;;;;;4.31;68.44;97654.06;5076748;27;97845;-79
2023/01/18 06:29:44;;;;;;;35.90;20.67;;;;;;;4.23;68.38;97645.81;5056756;27;97397;-78
2023/01/18 06:32:09;;;;;;;31.63;19.33;;;;;;;4.17;68.45;97641.78;5055389;27;97113;-79
2023/01/18 06:34:35;;;;;;;31.87;18.57;;;;;;;4.31;68.46;97651.47;5067386;27;97338;-80
2023/01/18 06:37:01;;;;;;;37.23;19.30;;;;;;;4.35;68.47;97652.13;5062372;27;100996;-82
2023/01/18 06:39:27;;;;;;;31.70;16.83;;;;;;;4.34;68.75;97647.88;5072609;27;98370;-81
2023/01/18 06:41:53;;;;;;;29.77;16.87;;;;;;;4.34;68.33;97642.69;5071529;27;97688;-79
2023/01/18 06:44:18;;;;;;;29.90;17.13;;;;;;;4.36;68.65;97638.22;5084269;27;97260;-79
2023/01/18 06:46:44;;;;;;;32.00;15.77;;;;;;;4.32;69.12;97643.56;5060557;27;101769;-80
2023/01/18 06:49:11;;;;;;;24.70;15.27;;;;;;;4.36;68.69;97643.41;5045218;27;101658;-77
2023/01/18 06:51:37;;;;;;;26.40;15.57;;;;;;;4.32;68.83;97637.53;5056496;27;96832;-80
2023/01/18 06:54:02;;;;;;;26.90;14.97;;;;;;;4.36;69.06;97638.22;5059004;27;96941;-80
2023/01/18 06:56:28;;;;;;;25.27;14.97;;;;;;;4.34;69.27;97635.72;5053764;27;100958;-80
2023/01/18 06:58:56;;;;;;;25.37;14.33;;;;;;;4.36;68.94;97635.63;5068124;27;97342;-81
2023/01/18 07:01:22;;;;;;;22.67;14.17;;;;;;;4.41;69.04;97636.22;5054407;27;98039;-80
2023/01/18 07:03:48;;;;;;;23.00;13.60;;;;;;;4.40;68.61;97640.59;5065870;27;96779;-80
2023/01/18 07:06:13;;;;;;;20.40;13.17;;;;;;;4.44;69.14;97642.09;5074084;27;97501;-81
2023/01/18 07:08:39;;;;;;;22.53;13.07;;;;;;;4.40;69.23;97637.16;5055658;27;101240;-80
2023/01/18 07:11:06;;;;;;;21.17;12.20;;;;;;;4.42;69.27;97646.56;5074050;27;97148;-81
2023/01/18 07:13:32;;;;;;;21.30;13.33;;;;;;;4.46;68.79;97642.03;5056466;27;97292;-80
2023/01/18 07:16:00;;;;;;;22.63;12.93;;;;;;;4.43;69.03;97634.41;5063343;27;99117;-81
2023/01/18 07:18:27;;;;;;;23.73;12.33;;;;;;;4.51;68.90;97650.44;5060055;27;100863;-81
2023/01/18 07:20:57;;;;;;;21.97;11.57;;;;;;;4.49;69.03;97644.47;5038622;27;96889;-79
2023/01/18 07:23:23;;;;;;;22.13;12.30;;;;;;;4.49;69.01;97644.47;5036441;27;97046;-79
2023/01/18 07:25:48;;;;;;;19.07;12.07;;;;;;;4.52;69.44;97649.50;5065703;27;101221;-80
2023/01/18 07:28:14;;;;;;;18.33;12.27;;;;;;;4.52;69.07;97652.94;5071452;27;101764;-79
2023/01/18 07:30:39;;;;;;;20.27;11.70;;;;;;;4.56;68.86;97655.38;5055391;27;96803;-80
2023/01/18 07:33:06;;;;;;;19.43;11.53;;;;;;;4.56;69.33;97669.22;5072380;27;97701;-75
2023/01/18 07:35:32;;;;;;;17.17;11.17;;;;;;;4.60;69.21;97659.53;5075622;27;97775;-75
2023/01/18 07:37:58;;;;;;;17.93;11.60;;;;;;;4.60;69.20;97665.53;5070932;27;98887;-76
2023/01/18 07:40:23;;;;;;;17.50;10.93;;;;;;;4.57;69.05;97657.03;5068545;27;97353;-75
2023/01/18 07:42:55;;;;;;;18.70;11.03;;;;;;;4.60;69.20;97659.53;5069360;27;99983;-77
2023/01/18 07:45:21;;;;;;;;;;;;;;;4.58;69.22;97666.53;5070756;27;97917;-79
2023/01/18 07:47:46;;;;;;;22.27;11.97;;;;;;;4.48;68.90;97643.66;5065719;27;98206;-77
2023/01/18 07:50:13;;;;;;;18.60;10.60;;;;;;;4.58;69.45;97659.59;5056000;27;96845;-78
2023/01/18 07:52:38;;;;;;;15.87;9.87;;;;;;;4.57;69.41;97657.03;5036962;27;97325;-75
2023/01/18 07:55:04;;;;;;;17.40;10.67;;;;;;;4.61;69.59;97653.38;5054942;27;101479;-75
2023/01/18 07:57:30;;;;;;;14.90;9.87;;;;;;;4.65;69.18;97660.09;5067806;27;101272;-77
2023/01/18 07:59:55;;;;;;;18.73;11.27;;;;;;;4.65;69.11;97653.13;5060321;27;97416;-76
2023/01/18 08:02:21;;;;;;;19.03;10.47;;;;;;;4.66;69.14;97660.03;5062257;27;96940;-77
2023/01/18 08:04:48;;;;;;;19.57;10.20;;;;;;;4.70;69.36;97655.50;5044531;27;101773;-79
2023/01/18 08:07:16;;;;;;;17.20;10.13;;;;;;;4.52;69.60;97641.72;5057505;27;101055;-79
2023/01/18 08:09:41;;;;;;;16.67;9.93;;;;;;;4.56;69.44;97660.56;5057473;27;97479;-77
2023/01/18 08:12:11;;;;;;;20.50;10.53;;;;;;;4.53;69.61;97669.38;5071466;27;97054;-78
2023/01/18 08:14:36;;;;;;;17.23;9.87;;;;;;;4.48;69.82;97667.03;5038065;27;101804;-79
2023/01/18 08:17:02;;;;;;;15.37;10.83;;;;;;;4.45;69.52;97671.50;5053867;27;101717;-78
2023/01/18 08:19:27;;;;;;;17.13;10.30;;;;;;;4.52;70.09;97691.91;5053276;27;97138;-79
2023/01/18 08:21:53;;;;;;;16.50;10.27;;;;;;;4.51;69.82;97692.84;5052515;27;97244;-80
2023/01/18 08:24:19;;;;;;;13.47;9.60;;;;;;;4.46;69.42;97679.25;5063640;27;97972;-80
2023/01/18 08:26:44;;;;;;;19.83;9.93;;;;;;;4.59;69.78;97697.63;5050545;27;97956;-80
2023/01/18 08:29:10;;;;;;;14.43;9.47;;;;;;;4.62;69.32;97699.22;5058035;27;97971;-80
2023/01/18 08:31:35;;;;;;;17.33;9.70;;;;;;;4.67;69.71;97711.06;5036744;27;98181;-79
2023/01/18 08:34:02;;;;;;;17.97;10.67;;;;;;;4.68;69.46;97704.97;5048252;27;99414;-80
2023/01/18 08:36:28;;;;;;;17.73;10.33;;;;;;;4.71;69.74;97706.56;5062501;27;97865;-77
2023/01/18 08:38:58;;;;;;;15.57;9.70;;;;;;;4.69;69.70;97705.81;5034275;27;97322;-79
2023/01/18 08:41:27;;;;;;;13.70;10.40;;;;;;;4.73;69.48;97715.94;5034238;27;97266;-78
2023/01/18 08:43:57;;;;;;;19.07;11.00;;;;;;;4.72;69.46;97711.69;5039210;27;101640;-78
2023/01/18 08:46:23;;;;;;;15.77;10.07;;;;;;;4.65;69.66;97701.66;5055753;27;97617;-81
2023/01/18 08:48:50;;;;;;;17.93;11.13;;;;;;;4.67;69.21;97705.88;5038318;27;97464;-81
2023/01/18 08:51:17;;;;;;;19.53;11.70;;;;;;;4.77;69.38;97724.44;5055238;27;97597;-80
2023/01/18 08:53:43;;;;;;;20.23;11.87;;;;;;;4.76;69.32;97712.34;5070412;27;101895;-81
2023/01/18 08:56:09;;;;;;;19.93;11.73;;;;;;;4.75;69.99;97713.28;5055474;27;97851;-77
2023/01/18 08:58:34;;;;;;;20.83;11.17;;;;;;;4.78;69.42;97714.88;5056421;27;96823;-76
2023/01/18 09:01:04;;;;;;;15.83;10.83;;;;;;;4.79;69.94;97713.97;5055963;27;96896;-76
2023/01/18 09:03:30;;;;;;;15.17;10.00;;;;;;;4.79;69.67;97717.41;5062981;27;100637;-75
2023/01/18 09:05:59;;;;;;;17.50;11.27;;;;;;;4.73;69.73;97704.72;5054133;27;99388;-78
2023/01/18 09:08:25;;;;;;;16.13;11.10;;;;;;;4.80;69.54;97718.22;5067655;27;97177;-78
2023/01/18 09:10:51;;;;;;;18.27;11.30;;;;;;;4.83;69.52;97731.94;5047998;27;97668;-79
2023/01/18 09:13:16;;;;;;;21.53;12.80;;;;;;;4.80;69.39;97720.81;5056143;27;97804;-78
2023/01/18 09:15:42;;;;;;;20.03;12.37;;;;;;;4.81;69.51;97735.53;5069102;27;98509;-77
2023/01/18 09:18:07;;;;;;;20.80;12.23;;;;;;;4.68;69.46;97717.97;5057955;27;97886;-78
2023/01/18 09:20:34;;;;;;;17.63;10.70;;;;;;;4.83;69.33;97754.47;5046828;27;96982;-78
2023/01/18 09:23:07;;;;;;;19.30;11.77;;;;;;;4.71;69.26;97743.78;5054903;27;101198;-78
2023/01/18 09:25:35;;;;;;;19.33;12.03;;;;;;;4.80;69.29;97758.09;5051755;27;102324;-78
2023/01/18 09:28:02;;;;;;;16.90;12.80;;;;;;;4.73;69.28;97741.94;5057362;27;97038;-79
2023/01/18 09:30:29;;;;;;;20.70;12.63;;;;;;;4.68;70.03;97733.56;5069573;27;96724;-80
2023/01/18 09:32:56;;;;;;;18.20;12.40;;;;;;;4.80;69.59;97754.63;5072808;27;101140;-79
2023/01/18 09:35:21;;;;;;;20.03;12.87;;;;;;;4.82;69.20;97755.38;5064356;27;97388;-78
2023/01/18 09:37:47;;;;;;;19.77;12.33;;;;;;;4.85;69.48;97757.81;5056995;27;97130;-83
2023/01/18 09:40:18;;;;;;;18.10;12.30;;;;;;;4.75;69.38;97737.50;5082757;27;97256;-81
2023/01/18 09:42:44;;;;;;;18.80;11.87;;;;;;;4.89;69.58;97752.41;5045704;27;102149;-79
2023/01/18 09:45:28;;;;;;;20.20;12.50;;;;;;;4.83;69.53;97760.53;5058024;27;100051;-80
2023/01/18 09:48:10;;;;;;;19.33;12.63;;;;;;;4.71;69.29;97732.53;5060583;27;97268;-79
2023/01/18 09:50:41;;;;;;;21.03;12.63;;;;;;;4.85;69.60;97758.66;5068393;27;97080;-81
2023/01/18 09:53:17;;;;;;;18.83;12.50;;;;;;;4.81;69.60;97746.75;5056934;27;101409;-79
2023/01/18 09:55:47;;;;;;;19.83;13.33;;;;;;;4.82;69.39;97750.19;5066538;27;101938;-79
2023/01/18 09:58:48;;;;;;;20.93;13.23;;;;;;;4.84;69.37;97744.00;5064706;27;97217;-79
2023/01/18 10:01:20;;;;;;;21.67;13.00;;;;;;;4.79;69.48;97738.19;4998666;27;97080;-79
2023/01/18 10:03:59;;;;;;;16.38;11.70;;;;;;;4.89;69.80;97751.56;5039057;27;101024;-80
2023/01/18 10:06:31;;;;;;;22.40;12.53;;;;;;;4.89;69.81;97752.41;5055930;27;97846;-81
2023/01/18 10:09:03;;;;;;;20.63;12.43;;;;;;;4.81;69.74;97736.34;5066520;27;96989;-81
2023/01/18 10:11:56;;;;;;;20.77;13.57;;;;;;;4.93;69.75;97756.50;5056819;27;97430;-82
2023/01/18 10:14:50;;;;;;;19.67;13.13;;;;;;;4.99;69.99;97751.00;5073768;27;97900;-81
2023/01/18 10:17:22;;;;;;;24.17;14.30;;;;;;;4.96;70.02;97751.16;5084447;27;98116;-78
2023/01/18 10:19:48;;;;;;;23.65;14.60;;;;;;;4.95;70.21;97746.03;5070533;27;97836;-79
2023/01/18 10:22:35;;;;;;;22.23;15.57;;;;;;;4.94;70.45;97757.34;5042446;27;97957;-78
2023/01/18 10:25:32;;;;;;;22.47;16.00;;;;;;;4.96;70.13;97755.50;5059434;27;101633;-79
2023/01/18 10:27:57;;;;;;;25.77;17.40;;;;;;;4.96;69.99;97760.72;5069403;27;101193;-78
2023/01/18 10:31:03;;;;;;;24.90;16.37;;;;;;;4.94;70.12;97759.94;5074243;27;97680;-79
2023/01/18 10:33:37;;;;;;;25.97;17.03;;;;;;;4.88;70.36;97749.88;4970897;28;97493;-78
2023/01/18 10:36:12;;;;;;;24.50;16.60;;;;;;;4.95;70.18;97759.88;5039902;27;98049;-79
2023/01/18 10:38:39;;;;;;;22.23;16.67;;;;;;;4.99;70.33;97765.75;5070912;27;101587;-78
2023/01/18 10:41:14;;;;;;;24.30;15.90;;;;;;;4.96;70.02;97771.13;5054290;27;97847;-78
2023/01/18 10:43:40;;;;;;;24.60;16.30;;;;;;;4.99;69.89;97778.75;5072350;27;97058;-79
2023/01/18 10:46:12;;;;;;;25.17;16.53;;;;;;;4.94;69.91;97776.38;5073296;27;97334;-80
2023/01/18 10:48:40;;;;;;;25.30;16.10;;;;;;;5.00;70.00;97785.63;5064423;27;100871;-78
2023/01/18 10:51:06;;;;;;;19.53;14.33;;;;;;;4.97;69.89;97778.84;5048765;27;96951;-78
2023/01/18 10:53:35;;;;;;;21.60;14.20;;;;;;;5.02;69.73;97782.97;5055016;27;96991;-78
2023/01/18 10:56:01;;;;;;;21.10;15.23;;;;;;;5.06;69.59;97784.47;5067730;27;101823;-78
2023/01/18 10:58:30;;;;;;;26.07;17.60;;;;;;;5.02;70.15;97781.19;5070202;27;97563;-79
2023/01/18 11:00:56;;;;;;;28.87;18.30;;;;;;;5.06;69.91;97784.47;5047130;27;96686;-79
2023/01/18 11:03:25;;;;;;;34.57;19.40;;;;;;;5.08;70.25;97793.03;5070357;27;97337;-80
2023/01/18 11:05:51;;;;;;;30.50;18.93;;;;;;;4.98;69.71;97775.31;5052678;27;101546;-81
2023/01/18 11:08:16;;;;;;;31.10;18.60;;;;;;;5.07;70.04;97787.00;5059905;27;97895;-78
2023/01/18 11:10:42;;;;;;;27.37;19.33;;;;;;;5.07;69.64;97793.97;5071458;27;96736;-78
2023/01/18 11:13:55;;;;;;;31.77;19.93;;;;;;;5.08;69.57;97793.03;5053012;27;97302;-78
2023/01/18 11:16:21;;;;;;;34.83;20.27;;;;;;;5.06;69.76;97790.53;5035624;27;100977;-78
2023/01/18 11:18:57;;;;;;;30.73;20.63;;;;;;;5.09;69.88;97802.50;5057542;27;102736;-79
2023/01/18 11:21:24;;;;;;;32.93;21.03;;;;;;;5.08;70.29;97791.28;5064068;27;97162;-80
2023/01/18 11:23:50;;;;;;;33.80;21.57;;;;;;;5.07;70.34;97797.41;5076068;27;98154;-80
2023/01/18 11:26:18;;;;;;;34.37;20.63;;;;;;;5.05;69.91;97788.00;5051032;27;97388;-80
2023/01/18 11:29:00;;;;;;;29.57;19.90;;;;;;;5.05;69.96;97793.19;5037101;27;101087;-81
2023/01/18 11:31:28;;;;;;;28.57;18.77;;;;;;;4.88;70.03;97768.06;5036772;27;96865;-81
2023/01/18 11:34:00;;;;;;;29.37;18.03;;;;;;;5.08;69.99;97800.84;5038158;27;97234;-81
2023/01/18 11:36:37;;;;;;;25.85;17.80;;;;;;;5.08;70.19;97806.88;5054591;27;101668;-81
2023/01/18 11:39:21;;;;;;;22.93;16.27;;;;;;;5.09;70.16;97813.78;5045833;27;102563;-80
2023/01/18 11:41:47;;;;;;;23.13;16.13;;;;;;;5.10;70.13;97812.00;5054829;27;100735;-79
2023/01/18 11:44:25;;;;;;;24.67;16.50;;;;;;;5.09;69.92;97816.38;5058470;27;96888;-80
2023/01/18 11:46:52;;;;;;;29.40;17.67;;;;;;;5.12;69.88;97813.63;5053382;27;99181;-80
2023/01/18 11:49:38;;;;;;;29.23;19.20;;;;;;;5.13;70.09;97817.88;5033050;27;101670;-79
2023/01/18 11:52:14;;;;;;;29.83;19.93;;;;;;;5.13;70.03;97822.25;5064513;27;97308;-79
2023/01/18 11:54:42;;;;;;;30.60;18.87;;;;;;;5.15;69.94;97828.22;5056658;27;97292;-79
2023/01/18 11:57:11;;;;;;;30.70;19.57;;;;;;;5.13;70.17;97825.69;5059325;27;101621;-80
2023/01/18 11:59:41;;;;;;;29.93;19.37;;;;;;;5.05;70.45;97811.41;5068914;27;98018;-80
2023/01/18 12:02:30;;;;;;;28.23;18.33;;;;;;;5.18;70.18;97831.50;5058921;27;96791;-79
2023/01/18 12:05:04;;;;;;;22.50;16.93;;;;;;;5.16;69.97;97832.50;5069361;27;97148;-79
2023/01/18 12:07:55;;;;;;;24.00;15.80;;;;;;;5.20;69.72;97842.66;5071274;27;101160;-79
2023/01/18 12:10:24;;;;;;;25.17;15.60;;;;;;;5.19;69.89;97853.16;5070582;27;101024;-78
2023/01/18 12:13:20;;;;;;;20.47;15.67;;;;;;;5.19;69.78;97856.59;5068760;27;97237;-79